Time;durP1;ratioP1;P1;durP2;ratioP2;P2;SDS_P1;SDS_P2;PMS_P1;PMS_P2;Temp;Humidity;BMP_temperature;BMP_pressure;BME280_temperature;BME280_humidity;BME280_pressure;Samples;Min_cycle;Max_cycle;Signal;HPM_P1;HPM_P2
2022/11/21 00:00:28;;;;;;;15.80;8.60;;;2.60;99.90;;;;;;5033153;28;20091;-69
2022/11/21 00:03:00;;;;;;;18.15;8.55;;;2.60;99.90;;;;;;4999824;28;20049;-70
2022/11/21 00:05:28;;;;;;;19.88;8.23;;;2.60;99.90;;;;;;5002112;28;20048;-70
2022/11/21 00:07:54;;;;;;;19.90;9.23;;;2.60;99.90;;;;;;4998842;28;20066;-70
2022/11/21 00:10:22;;;;;;;16.20;8.50;;;2.60;99.90;;;;;;5000463;28;20099;-71
2022/11/21 00:12:53;;;;;;;22.48;9.32;;;2.60;99.90;;;;;;4999803;28;20049;-70
2022/11/21 00:15:19;;;;;;;19.42;9.95;;;2.60;99.90;;;;;;5000202;28;20132;-70
2022/11/21 00:17:45;;;;;;;20.23;8.50;;;2.60;99.90;;;;;;5002085;28;20129;-78
2022/11/21 00:20:11;;;;;;;17.93;9.80;;;2.60;99.90;;;;;;5007097;28;20430;-69
2022/11/21 00:22:36;;;;;;;19.07;8.93;;;2.60;99.90;;;;;;5001936;28;20264;-69
2022/11/21 00:25:02;;;;;;;15.83;8.20;;;2.60;99.90;;;;;;4998203;28;20038;-69
2022/11/21 00:27:28;;;;;;;15.97;8.73;;;2.60;99.90;;;;;;4994946;28;20057;-69
2022/11/21 00:29:53;;;;;;;17.83;8.90;;;2.60;99.90;;;;;;4998747;28;20085;-70
2022/11/21 00:32:19;;;;;;;20.87;8.80;;;2.60;99.90;;;;;;4999743;28;20034;-70
2022/11/21 00:34:45;;;;;;;21.20;8.93;;;2.60;99.90;;;;;;5016800;28;20034;-71
2022/11/21 00:37:10;;;;;;;18.73;9.10;;;2.60;99.90;;;;;;5001307;28;20512;-70
2022/11/21 00:39:36;;;;;;;21.90;9.17;;;2.60;99.90;;;;;;4984945;28;20144;-70
2022/11/21 00:42:02;;;;;;;14.90;7.83;;;2.60;99.90;;;;;;5001334;28;20392;-67
2022/11/21 00:44:27;;;;;;;18.73;8.37;;;2.60;99.90;;;;;;5004870;28;20100;-67
2022/11/21 00:46:53;;;;;;;21.30;9.27;;;2.60;99.90;;;;;;5005809;28;20042;-68
2022/11/21 00:49:18;;;;;;;19.43;9.17;;;2.60;99.90;;;;;;5007123;28;20064;-68
2022/11/21 00:51:44;;;;;;;18.57;9.10;;;2.60;99.90;;;;;;5005095;28;20403;-67
2022/11/21 00:54:10;;;;;;;18.07;8.60;;;2.60;99.90;;;;;;5003961;28;20038;-67
2022/11/21 00:56:36;;;;;;;19.80;9.67;;;2.50;99.90;;;;;;5006055;28;20041;-67
2022/11/21 00:59:01;;;;;;;18.30;8.83;;;2.60;99.90;;;;;;5005446;28;20034;-67
2022/11/21 01:01:27;;;;;;;16.23;7.40;;;2.50;99.90;;;;;;5005960;28;20484;-68
2022/11/21 01:03:52;;;;;;;18.97;9.53;;;2.50;99.90;;;;;;5006194;28;20038;-67
2022/11/21 01:06:18;;;;;;;22.17;9.27;;;2.50;99.90;;;;;;5006970;28;20034;-68
2022/11/21 01:08:44;;;;;;;17.40;8.70;;;2.50;99.90;;;;;;5003461;28;20046;-67
2022/11/21 01:11:16;;;;;;;18.33;9.47;;;2.50;99.90;;;;;;5005008;28;20064;-67
2022/11/21 01:13:42;;;;;;;20.30;9.73;;;2.50;99.90;;;;;;4988645;28;20175;-67
2022/11/21 01:16:14;;;;;;;20.02;8.43;;;2.50;99.90;;;;;;5004663;28;20414;-67
2022/11/21 01:18:40;;;;;;;21.60;8.63;;;2.50;99.90;;;;;;5004020;28;20056;-67
2022/11/21 01:21:11;;;;;;;19.67;9.85;;;2.50;99.90;;;;;;5006517;28;20045;-68
2022/11/21 01:23:37;;;;;;;18.08;9.18;;;2.60;99.90;;;;;;5003534;28;20538;-68
2022/11/21 01:26:04;;;;;;;19.03;8.47;;;2.60;99.90;;;;;;5005249;28;20034;-67
2022/11/21 01:28:31;;;;;;;23.98;9.68;;;2.60;99.90;;;;;;5002991;28;20104;-68
2022/11/21 01:31:08;;;;;;;18.65;8.80;;;2.60;99.90;;;;;;5004891;28;20487;-67
2022/11/21 01:33:35;;;;;;;20.05;9.27;;;2.60;99.90;;;;;;5005226;28;20503;-67
2022/11/21 01:36:15;;;;;;;22.30;10.05;;;2.60;99.90;;;;;;5007034;28;20512;-68
2022/11/21 01:38:46;;;;;;;19.52;8.85;;;2.60;99.90;;;;;;5007630;28;20089;-67
2022/11/21 01:41:14;;;;;;;22.60;9.02;;;2.50;99.90;;;;;;5006520;28;20053;-67
2022/11/21 01:43:40;;;;;;;19.65;9.20;;;2.50;99.90;;;;;;5006669;28;20041;-68
2022/11/21 01:46:14;;;;;;;19.33;9.73;;;2.50;99.90;;;;;;5005978;28;20061;-67
2022/11/21 01:48:47;;;;;;;20.13;9.50;;;2.50;99.90;;;;;;5005251;28;20042;-67
2022/11/21 01:51:31;;;;;;;19.45;9.32;;;2.50;99.90;;;;;;5007258;28;20471;-68
2022/11/21 01:54:12;;;;;;;19.83;8.52;;;2.50;99.90;;;;;;5003888;28;20046;-67
2022/11/21 01:56:48;;;;;;;17.75;8.85;;;2.40;99.90;;;;;;5005179;28;20041;-67
2022/11/21 01:59:20;;;;;;;19.55;8.70;;;2.50;99.90;;;;;;5006197;28;20110;-67
2022/11/21 02:01:48;;;;;;;19.75;9.85;;;2.40;99.90;;;;;;5005551;28;20484;-67
2022/11/21 02:04:14;;;;;;;19.73;9.82;;;2.40;99.90;;;;;;5005620;28;20605;-67
2022/11/21 02:06:40;;;;;;;17.98;8.10;;;2.40;99.90;;;;;;4999367;28;20046;-67
2022/11/21 02:09:06;;;;;;;20.07;9.23;;;2.40;99.90;;;;;;5004891;28;20068;-67
2022/11/21 02:11:38;;;;;;;18.85;10.32;;;2.40;99.90;;;;;;5007638;28;20034;-67
2022/11/21 02:14:04;;;;;;;24.63;9.57;;;2.40;99.90;;;;;;5004579;28;20139;-67
2022/11/21 02:16:30;;;;;;;19.93;9.53;;;2.40;99.90;;;;;;5002646;28;20101;-67
2022/11/21 02:18:55;;;;;;;22.90;10.13;;;2.30;99.90;;;;;;5006251;28;20089;-67
2022/11/21 02:21:48;;;;;;;21.83;9.23;;;2.30;99.90;;;;;;5007821;28;20637;-67
2022/11/21 02:24:45;;;;;;;20.10;10.40;;;2.30;99.90;;;;;;5005192;28;20038;-67
2022/11/21 02:27:11;;;;;;;21.80;9.98;;;2.30;99.90;;;;;;5004126;28;20050;-68
2022/11/21 02:29:39;;;;;;;20.75;9.73;;;2.30;99.90;;;;;;5009939;28;20038;-67
2022/11/21 02:32:05;;;;;;;25.25;10.13;;;2.20;99.90;;;;;;5009664;28;20077;-67
2022/11/21 02:34:31;;;;;;;19.98;9.48;;;2.20;99.90;;;;;;5009383;28;20137;-73
2022/11/21 02:36:58;;;;;;;22.83;9.52;;;2.30;99.90;;;;;;5010442;28;20113;-73
2022/11/21 02:39:34;;;;;;;19.70;9.82;;;2.20;99.90;;;;;;5012065;28;20116;-67
2022/11/21 02:42:17;;;;;;;19.77;9.85;;;2.20;99.90;;;;;;5007996;28;20499;-68
2022/11/21 02:45:22;;;;;;;19.20;9.60;;;2.20;99.90;;;;;;5011739;28;20038;-68
2022/11/21 02:47:52;;;;;;;21.35;9.57;;;2.20;99.90;;;;;;5007391;28;20053;-67
2022/11/21 02:50:24;;;;;;;18.95;9.43;;;2.10;99.90;;;;;;5009598;28;20136;-68
2022/11/21 02:52:50;;;;;;;20.92;10.10;;;2.10;99.90;;;;;;5010115;28;20117;-68
2022/11/21 02:55:15;;;;;;;19.43;9.10;;;2.10;99.90;;;;;;5006003;28;20132;-68
2022/11/21 02:57:41;;;;;;;19.70;9.60;;;2.10;99.90;;;;;;5006184;28;20057;-67
2022/11/21 03:00:11;;;;;;;20.17;9.07;;;2.00;99.90;;;;;;5006621;28;20366;-68
2022/11/21 03:02:37;;;;;;;19.92;9.30;;;2.00;99.90;;;;;;5005543;28;20476;-67
2022/11/21 03:05:05;;;;;;;21.88;10.23;;;1.90;99.90;;;;;;5007644;28;20038;-67
2022/11/21 03:07:30;;;;;;;23.88;10.02;;;1.90;99.90;;;;;;5007811;28;20042;-67
2022/11/21 03:09:56;;;;;;;21.23;10.20;;;1.90;99.90;;;;;;5007735;28;20056;-67
2022/11/21 03:12:22;;;;;;;21.77;9.43;;;1.80;99.90;;;;;;5006198;28;20072;-67
2022/11/21 03:14:48;;;;;;;22.77;9.83;;;1.70;99.90;;;;;;5007310;28;20034;-68
2022/11/21 03:17:13;;;;;;;19.80;9.27;;;1.70;99.90;;;;;;5009163;28;20124;-67
2022/11/21 03:19:39;;;;;;;22.47;9.53;;;1.60;99.90;;;;;;5009465;28;20096;-68
2022/11/21 03:22:05;;;;;;;21.17;9.20;;;1.60;99.90;;;;;;5008852;28;20336;-68
2022/11/21 03:24:33;;;;;;;22.53;9.23;;;1.50;99.90;;;;;;5009116;28;20092;-68
2022/11/21 03:26:59;;;;;;;21.90;9.70;;;1.40;99.90;;;;;;5009416;28;20081;-67
2022/11/21 03:29:24;;;;;;;26.13;10.13;;;1.40;99.90;;;;;;5008728;28;20073;-67
2022/11/21 03:31:50;;;;;;;22.10;10.13;;;1.30;99.90;;;;;;5008594;28;20428;-68
2022/11/21 03:34:15;;;;;;;21.47;11.07;;;1.30;99.90;;;;;;4991353;28;20029;-68
2022/11/21 03:36:41;;;;;;;20.43;9.53;;;1.20;99.90;;;;;;5008564;28;20038;-67
2022/11/21 03:39:09;;;;;;;20.47;9.07;;;1.20;99.90;;;;;;5003963;28;20451;-67
2022/11/21 03:41:35;;;;;;;20.33;9.95;;;1.20;99.90;;;;;;5008670;28;20460;-67
2022/11/21 03:44:09;;;;;;;22.27;10.10;;;1.10;99.90;;;;;;5002559;28;20088;-67
2022/11/21 03:46:41;;;;;;;20.30;9.48;;;1.10;99.90;;;;;;5008087;28;20068;-67
2022/11/21 03:49:10;;;;;;;19.65;8.93;;;1.10;99.90;;;;;;5009188;28;20424;-68
2022/11/21 03:51:39;;;;;;;20.83;10.27;;;1.10;99.90;;;;;;5007409;28;20042;-68
2022/11/21 03:54:05;;;;;;;21.63;9.52;;;1.10;99.90;;;;;;5013723;28;20091;-67
2022/11/21 03:56:31;;;;;;;21.52;10.60;;;1.10;99.90;;;;;;5008754;28;20084;-69
2022/11/21 03:58:57;;;;;;;22.13;10.05;;;1.10;99.90;;;;;;5006297;28;20041;-68
2022/11/21 04:01:24;;;;;;;22.53;10.23;;;1.10;99.90;;;;;;5007220;28;20455;-67
2022/11/21 04:03:50;;;;;;;15.05;8.18;;;1.10;99.90;;;;;;5009036;28;20038;-67
2022/11/21 04:06:19;;;;;;;20.05;9.32;;;1.10;99.90;;;;;;5009398;28;20333;-68
2022/11/21 04:08:44;;;;;;;17.58;9.02;;;1.10;99.90;;;;;;5006550;28;20045;-67
2022/11/21 04:11:10;;;;;;;22.23;8.35;;;1.10;99.90;;;;;;5008314;28;20048;-68
2022/11/21 04:13:39;;;;;;;20.43;9.33;;;1.10;99.90;;;;;;5001998;28;20042;-67
2022/11/21 04:16:05;;;;;;;21.85;9.73;;;1.10;99.90;;;;;;5004954;28;20033;-68
2022/11/21 04:18:32;;;;;;;18.57;9.23;;;1.10;99.90;;;;;;5008496;28;20197;-67
2022/11/21 04:21:04;;;;;;;18.63;8.80;;;1.10;99.90;;;;;;5006630;28;20049;-68
2022/11/21 04:23:29;;;;;;;19.55;9.30;;;1.00;99.90;;;;;;5008282;28;20041;-68
2022/11/21 04:25:55;;;;;;;20.37;9.17;;;1.00;99.90;;;;;;4994731;23;20420;-70
2022/11/21 04:28:22;;;;;;;17.00;8.37;;;1.00;99.90;;;;;;4985329;28;20562;-70
2022/11/21 04:30:47;;;;;;;17.88;8.45;;;0.90;99.90;;;;;;4982356;28;20121;-71
2022/11/21 04:33:14;;;;;;;20.53;9.20;;;0.90;99.90;;;;;;4982475;28;20069;-70
2022/11/21 04:35:42;;;;;;;18.77;8.02;;;0.80;99.90;;;;;;4984479;28;20046;-70
2022/11/21 04:38:07;;;;;;;17.20;9.30;;;0.80;99.90;;;;;;4985384;28;20675;-70
2022/11/21 04:40:34;;;;;;;17.93;9.17;;;0.80;99.90;;;;;;4982497;28;20072;-70
2022/11/21 04:42:59;;;;;;;;;;;0.70;99.90;;;;;;4981592;28;20054;-70
2022/11/21 04:45:25;;;;;;;19.17;9.25;;;0.70;99.90;;;;;;4978273;28;19932;-70
2022/11/21 04:47:51;;;;;;;18.33;8.93;;;0.60;99.90;;;;;;4978561;28;20531;-70
2022/11/21 04:50:17;;;;;;;16.23;9.07;;;0.60;99.90;;;;;;4983509;28;20038;-70
2022/11/21 04:52:52;;;;;;;22.13;9.27;;;0.60;99.90;;;;;;4982357;28;20146;-71
2022/11/21 04:55:19;;;;;;;22.88;9.07;;;0.60;99.90;;;;;;4984474;28;20065;-70
2022/11/21 04:57:45;;;;;;;19.67;9.63;;;0.60;99.90;;;;;;4984627;28;20052;-70
2022/11/21 05:00:12;;;;;;;25.07;9.73;;;0.60;99.90;;;;;;4980650;28;20169;-70
2022/11/21 05:02:37;;;;;;;22.52;10.23;;;0.60;99.90;;;;;;4991248;28;20456;-70
2022/11/21 05:05:03;;;;;;;21.90;10.67;;;0.60;99.90;;;;;;4983427;28;20128;-70
2022/11/21 05:07:29;;;;;;;23.47;10.50;;;0.70;99.90;;;;;;4981175;28;20046;-71
2022/11/21 05:09:54;;;;;;;23.83;11.00;;;0.70;99.90;;;;;;4983170;28;20789;-70
2022/11/21 05:15:04;;;;;;;18.52;9.13;;;0.70;99.90;;;;;;4979755;28;20313;-70
2022/11/21 05:17:33;;;;;;;25.30;10.77;;;0.70;99.90;;;;;;4976931;28;20046;-70
2022/11/21 05:19:59;;;;;;;20.98;9.45;;;0.80;99.90;;;;;;4982241;28;20639;-70
2022/11/21 05:22:24;;;;;;;24.42;11.55;;;0.70;99.90;;;;;;4982786;28;20077;-70
2022/11/21 05:24:50;;;;;;;25.37;10.80;;;0.80;99.90;;;;;;4983252;28;20073;-70
2022/11/21 05:27:15;;;;;;;23.00;10.27;;;0.70;99.90;;;;;;4966289;28;20038;-70
2022/11/21 05:29:41;;;;;;;22.10;11.20;;;0.70;99.90;;;;;;4981631;28;20045;-70
2022/11/21 05:32:07;;;;;;;21.77;10.07;;;0.70;99.90;;;;;;4982483;28;20046;-70
2022/11/21 05:34:32;;;;;;;22.93;10.07;;;0.70;99.90;;;;;;4980989;28;20436;-70
2022/11/21 05:36:58;;;;;;;22.67;9.83;;;0.70;99.90;;;;;;4985495;28;20030;-70
2022/11/21 05:39:25;;;;;;;22.33;10.20;;;0.80;99.90;;;;;;4984069;28;20042;-70
2022/11/21 05:41:50;;;;;;;23.60;10.35;;;0.70;99.90;;;;;;4982859;28;20175;-70
2022/11/21 05:44:16;;;;;;;23.40;10.00;;;0.80;99.90;;;;;;4983419;28;20050;-70
2022/11/21 05:46:42;;;;;;;21.90;10.60;;;0.80;99.90;;;;;;4982608;28;20384;-70
2022/11/21 05:49:08;;;;;;;19.07;9.63;;;0.80;99.90;;;;;;4983544;28;20101;-70
2022/11/21 05:51:34;;;;;;;21.30;9.60;;;0.70;99.90;;;;;;4997429;28;20512;-70
2022/11/21 05:53:59;;;;;;;22.93;10.30;;;0.70;99.90;;;;;;4977755;28;20042;-70
2022/11/21 05:56:25;;;;;;;28.20;10.48;;;0.70;99.90;;;;;;4986127;28;20042;-70
2022/11/21 05:58:54;;;;;;;23.67;10.93;;;0.70;99.90;;;;;;4986307;28;20330;-70
2022/11/21 06:03:25;;;;;;;23.25;9.68;;;0.70;99.90;;;;;;4997190;28;20069;-70
2022/11/21 06:04:06;;;;;;;22.13;9.98;;;0.70;99.90;;;;;;4985194;28;20041;-70
2022/11/21 06:06:32;;;;;;;23.27;11.18;;;0.70;99.90;;;;;;4987316;28;20054;-70
2022/11/21 06:08:57;;;;;;;18.70;9.07;;;0.70;99.90;;;;;;4984126;28;20304;-70
2022/11/21 06:11:23;;;;;;;21.67;10.00;;;0.70;99.90;;;;;;4981167;28;20034;-70
2022/11/21 06:13:49;;;;;;;24.70;10.07;;;0.70;99.90;;;;;;4984307;28;20038;-70
2022/11/21 06:16:17;;;;;;;21.17;9.50;;;0.60;99.90;;;;;;4982877;28;20041;-70
2022/11/21 06:18:48;;;;;;;23.40;9.98;;;0.60;99.90;;;;;;4986335;28;20043;-70
2022/11/21 06:21:16;;;;;;;20.17;10.05;;;0.70;99.90;;;;;;4985687;28;20046;-70
2022/11/21 06:23:42;;;;;;;20.88;10.40;;;0.60;99.90;;;;;;4969619;28;20050;-70
2022/11/21 06:26:12;;;;;;;17.23;8.43;;;0.60;99.90;;;;;;4985481;28;20038;-70
2022/11/21 06:28:39;;;;;;;21.08;9.85;;;0.60;99.90;;;;;;4982868;28;20050;-71
2022/11/21 06:31:06;;;;;;;17.42;9.43;;;0.60;99.90;;;;;;4983389;28;20061;-71
2022/11/21 06:33:36;;;;;;;23.08;9.85;;;0.60;99.90;;;;;;4985735;28;20042;-70
2022/11/21 06:36:20;;;;;;;23.40;9.93;;;0.60;99.90;;;;;;4984233;28;20507;-70
2022/11/21 06:38:46;;;;;;;20.00;9.38;;;0.60;99.90;;;;;;4986731;28;20233;-71
2022/11/21 06:41:13;;;;;;;20.77;9.40;;;0.60;99.90;;;;;;4979518;28;20277;-70
2022/11/21 06:43:39;;;;;;;22.55;9.95;;;0.60;99.90;;;;;;4985197;28;20038;-73
2022/11/21 06:46:04;;;;;;;20.90;10.90;;;0.60;99.90;;;;;;4983288;28;20042;-74
2022/11/21 06:48:31;;;;;;;21.37;9.00;;;0.60;99.90;;;;;;4986263;28;20053;-70
2022/11/21 06:50:57;;;;;;;;;;;0.60;99.90;;;;;;4981808;28;20054;-70
2022/11/21 06:53:23;;;;;;;25.02;8.73;;;0.60;99.90;;;;;;4985408;28;20299;-71
2022/11/21 06:55:49;;;;;;;19.90;8.10;;;0.60;99.90;;;;;;4984720;28;20714;-70
2022/11/21 06:58:14;;;;;;;24.37;9.47;;;0.60;99.90;;;;;;4986792;28;20188;-72
2022/11/21 07:00:40;;;;;;;21.17;9.10;;;0.50;99.90;;;;;;4984601;28;20103;-70
2022/11/21 07:03:09;;;;;;;16.10;7.90;;;0.50;99.90;;;;;;4981719;28;20038;-70
2022/11/21 07:05:34;;;;;;;19.55;8.93;;;0.60;99.90;;;;;;4984913;28;20360;-71
2022/11/21 07:08:01;;;;;;;17.47;8.60;;;0.50;99.90;;;;;;4984571;28;20061;-70
2022/11/21 07:10:27;;;;;;;;;;;0.60;99.90;;;;;;4984487;28;20065;-71
2022/11/21 07:15:42;;;;;;;18.65;8.63;;;0.60;99.90;;;;;;4983825;28;20126;-70
2022/11/21 07:18:11;;;;;;;14.93;7.47;;;0.60;99.90;;;;;;4979029;28;20070;-73
2022/11/21 07:20:37;;;;;;;32.30;9.63;;;0.60;99.90;;;;;;4982845;28;20089;-69
2022/11/21 07:23:03;;;;;;;18.23;8.70;;;0.70;99.90;;;;;;4981851;28;20384;-69
2022/11/21 07:25:29;;;;;;;19.45;8.40;;;0.70;99.90;;;;;;4989847;28;20042;-69
2022/11/21 07:28:00;;;;;;;20.20;8.87;;;0.70;99.90;;;;;;4981448;28;20547;-69
2022/11/21 07:30:27;;;;;;;20.13;9.05;;;0.70;99.90;;;;;;4986796;28;20496;-69
2022/11/21 07:32:57;;;;;;;19.40;9.05;;;0.70;99.90;;;;;;4981842;28;20030;-69
2022/11/21 07:35:23;;;;;;;20.40;9.13;;;0.70;99.90;;;;;;4985455;28;20437;-69
2022/11/21 07:37:49;;;;;;;23.00;9.05;;;0.70;99.90;;;;;;4985822;28;20050;-69
2022/11/21 07:40:15;;;;;;;22.83;9.05;;;0.70;99.90;;;;;;4996646;28;20104;-69
2022/11/21 07:42:40;;;;;;;21.37;9.47;;;0.70;99.90;;;;;;4987445;28;20069;-69
2022/11/21 07:45:07;;;;;;;19.70;8.30;;;0.70;99.90;;;;;;4986905;28;20042;-70
2022/11/21 07:47:32;;;;;;;18.50;7.72;;;0.70;99.90;;;;;;4988271;28;20050;-70
2022/11/21 07:49:58;;;;;;;16.67;8.13;;;0.70;99.90;;;;;;4981532;28;20456;-69
2022/11/21 07:52:24;;;;;;;19.83;9.40;;;0.70;99.90;;;;;;4986590;28;20466;-69
2022/11/21 07:54:50;;;;;;;18.13;8.88;;;0.70;99.90;;;;;;4988284;28;20057;-69
2022/11/21 07:57:16;;;;;;;15.35;7.93;;;0.70;99.90;;;;;;4982202;28;20038;-69
2022/11/21 07:59:41;;;;;;;21.70;8.63;;;0.70;99.90;;;;;;4981332;28;20129;-69
2022/11/21 08:02:16;;;;;;;16.83;8.97;;;0.80;99.90;;;;;;4984270;28;20058;-70
2022/11/21 08:04:42;;;;;;;19.33;8.68;;;0.80;99.90;;;;;;4981822;28;20086;-69
2022/11/21 08:07:09;;;;;;;17.37;8.50;;;0.90;99.90;;;;;;4984918;28;20508;-69
2022/11/21 08:09:34;;;;;;;21.90;9.07;;;0.90;99.90;;;;;;4984275;28;20082;-69
2022/11/21 08:12:00;;;;;;;22.20;9.83;;;0.90;99.90;;;;;;4983282;28;20038;-69
2022/11/21 08:14:26;;;;;;;20.57;9.40;;;1.10;99.90;;;;;;4981073;28;20121;-69
2022/11/21 08:16:54;;;;;;;17.88;7.80;;;1.10;99.90;;;;;;4982347;28;20137;-69
2022/11/21 08:19:19;;;;;;;21.27;9.50;;;1.20;99.90;;;;;;4982886;28;20531;-70
2022/11/21 08:21:45;;;;;;;15.43;8.23;;;1.30;99.90;;;;;;4984026;28;20064;-69
2022/11/21 08:24:13;;;;;;;23.97;9.73;;;1.30;99.90;;;;;;4983937;28;20470;-69
2022/11/21 08:26:39;;;;;;;20.35;9.00;;;1.30;99.90;;;;;;4984713;28;20047;-69
2022/11/21 08:29:05;;;;;;;20.23;9.73;;;1.30;99.90;;;;;;4984980;28;20049;-69
2022/11/21 08:31:31;;;;;;;18.85;8.55;;;1.30;99.90;;;;;;4968544;28;20046;-69
2022/11/21 08:33:57;;;;;;;21.33;9.37;;;1.40;99.90;;;;;;4973340;28;20049;-69
2022/11/21 08:36:23;;;;;;;23.73;9.37;;;1.40;99.90;;;;;;4986051;28;20117;-69
2022/11/21 08:38:49;;;;;;;24.15;11.02;;;1.40;99.90;;;;;;4986547;28;20096;-69
2022/11/21 08:43:58;;;;;;;22.70;9.88;;;1.40;99.90;;;;;;4983575;28;20085;-69
2022/11/21 08:46:28;;;;;;;26.10;10.20;;;1.40;99.90;;;;;;4985735;28;20333;-69
2022/11/21 08:48:54;;;;;;;22.23;9.98;;;1.40;99.90;;;;;;4982533;28;20050;-69
2022/11/21 08:51:21;;;;;;;27.20;10.00;;;1.40;99.90;;;;;;4986069;28;20039;-69
2022/11/21 08:53:46;;;;;;;19.65;9.07;;;1.40;99.90;;;;;;4985970;28;20377;-69
2022/11/21 08:56:12;;;;;;;22.17;9.80;;;1.40;99.90;;;;;;4981615;28;20053;-69
2022/11/21 08:58:39;;;;;;;19.95;8.98;;;1.50;99.90;;;;;;4985065;28;20438;-70
2022/11/21 09:01:04;;;;;;;18.17;8.30;;;1.60;99.90;;;;;;4984221;28;20072;-70
2022/11/21 09:03:31;;;;;;;17.57;8.83;;;1.60;99.90;;;;;;4985276;28;20484;-70
2022/11/21 09:05:56;;;;;;;21.70;10.32;;;1.60;99.90;;;;;;4980933;28;20038;-68
2022/11/21 09:08:22;;;;;;;17.37;8.70;;;1.60;99.90;;;;;;4980686;28;20099;-69
2022/11/21 09:10:48;;;;;;;19.00;9.23;;;1.60;99.90;;;;;;4983361;28;20467;-69
2022/11/21 09:13:14;;;;;;;19.50;9.20;;;1.60;99.90;;;;;;4981912;28;20038;-70
2022/11/21 09:18:24;;;;;;;15.13;8.15;;;1.60;99.90;;;;;;4981463;28;20134;-70
2022/11/21 09:20:49;;;;;;;19.37;9.37;;;1.70;99.90;;;;;;4984033;28;20109;-69
2022/11/21 09:23:15;;;;;;;19.83;8.70;;;1.70;99.90;;;;;;4983707;28;20043;-69
2022/11/21 09:25:42;;;;;;;25.25;10.45;;;1.70;99.90;;;;;;4974618;28;20110;-70
2022/11/21 09:28:09;;;;;;;22.00;9.30;;;1.80;99.90;;;;;;4979745;28;20073;-69
2022/11/21 09:30:36;;;;;;;21.88;10.05;;;1.80;99.90;;;;;;4981528;28;20046;-69
2022/11/21 09:33:07;;;;;;;17.17;8.40;;;1.80;99.90;;;;;;4986313;28;20069;-69
2022/11/21 09:35:32;;;;;;;19.15;8.55;;;1.80;99.90;;;;;;4986647;28;20073;-69
2022/11/21 09:37:58;;;;;;;19.23;9.13;;;1.80;99.90;;;;;;4980586;28;20110;-70
2022/11/21 09:40:25;;;;;;;18.23;8.95;;;1.80;99.90;;;;;;4985693;28;20190;-69
2022/11/21 09:43:14;;;;;;;19.60;9.35;;;1.80;99.90;;;;;;4979447;28;20492;-69
2022/11/21 09:45:39;;;;;;;18.85;8.60;;;1.80;99.90;;;;;;4975336;28;20046;-69
2022/11/21 09:48:12;;;;;;;17.50;7.70;;;1.90;99.90;;;;;;4982664;28;20042;-69
2022/11/21 09:50:45;;;;;;;14.93;6.70;;;1.90;99.90;;;;;;4984430;28;20039;-69
2022/11/21 09:53:30;;;;;;;15.77;7.68;;;2.00;99.90;;;;;;4983404;28;20046;-69
2022/11/21 09:56:00;;;;;;;13.57;7.07;;;2.00;99.90;;;;;;4981162;28;20512;-69
2022/11/21 09:58:36;;;;;;;14.20;6.72;;;2.00;99.90;;;;;;4983735;28;20035;-69
2022/11/21 10:01:01;;;;;;;14.98;7.28;;;2.00;99.90;;;;;;4982663;28;20081;-69
2022/11/21 10:03:31;;;;;;;16.97;7.43;;;2.10;99.90;;;;;;4982425;28;20085;-70
2022/11/21 10:06:03;;;;;;;16.27;7.40;;;2.10;99.90;;;;;;4981707;28;20042;-69
2022/11/21 10:08:57;;;;;;;18.75;6.47;;;2.10;99.90;;;;;;4978493;28;20065;-69
2022/11/21 10:12:35;;;;;;;16.27;7.10;;;2.10;99.90;;;;;;4979128;28;20425;-69
2022/11/21 10:14:29;;;;;;;16.98;7.70;;;2.20;99.90;;;;;;4978956;28;20042;-72
2022/11/21 10:17:20;;;;;;;18.20;7.97;;;2.20;99.90;;;;;;4983259;28;20046;-70
2022/11/21 10:19:55;;;;;;;17.70;8.18;;;2.30;99.90;;;;;;4979791;28;20065;-73
2022/11/21 10:23:01;;;;;;;16.45;7.57;;;2.30;99.90;;;;;;4985329;28;20136;-75
2022/11/21 10:25:37;;;;;;;15.93;7.75;;;2.40;99.90;;;;;;5083967;23;20529;-66
2022/11/21 10:28:27;;;;;;;12.35;6.82;;;2.40;99.90;;;;;;5023094;28;20033;-66
2022/11/21 10:30:54;;;;;;;16.55;6.55;;;2.50;99.90;;;;;;5000329;28;20068;-66
2022/11/21 10:33:31;;;;;;;16.42;6.72;;;2.60;99.90;;;;;;5021892;28;20053;-66
2022/11/21 10:36:04;;;;;;;14.88;7.05;;;2.60;99.90;;;;;;5017317;28;20041;-66
2022/11/21 10:38:36;;;;;;;18.25;7.60;;;2.70;99.90;;;;;;5022557;28;20486;-66
2022/11/21 10:41:23;;;;;;;15.05;6.78;;;2.70;99.90;;;;;;5013137;28;20140;-66
2022/11/21 10:46:57;;;;;;;12.45;6.38;;;2.90;99.90;;;;;;5031237;28;20499;-65
2022/11/21 10:49:26;;;;;;;12.63;5.78;;;2.90;99.90;;;;;;5027852;28;20049;-66
2022/11/21 10:52:00;;;;;;;12.15;6.18;;;2.80;99.90;;;;;;5007596;28;20071;-66
2022/11/21 10:54:32;;;;;;;12.20;6.00;;;3.00;99.90;;;;;;5019282;28;20622;-66
2022/11/21 10:57:16;;;;;;;13.02;5.80;;;3.10;99.90;;;;;;5027947;28;20073;-66
2022/11/21 11:00:11;;;;;;;10.13;5.80;;;3.10;99.90;;;;;;5018924;28;20049;-66
2022/11/21 11:02:37;;;;;;;11.65;6.05;;;3.20;99.90;;;;;;5023676;28;20471;-66
2022/11/21 11:05:17;;;;;;;11.95;5.38;;;3.30;99.90;;;;;;5027968;28;20495;-66
2022/11/21 11:08:02;;;;;;;11.57;5.32;;;3.30;99.90;;;;;;5024905;28;20392;-67
2022/11/21 11:10:29;;;;;;;12.25;6.10;;;3.40;99.90;;;;;;5011329;28;20037;-67
2022/11/21 11:15:58;;;;;;;10.25;4.95;;;3.50;99.90;;;;;;5023028;28;20375;-66
2022/11/21 11:18:24;;;;;;;12.90;5.88;;;3.60;99.90;;;;;;5018796;28;20572;-65
2022/11/21 11:20:50;;;;;;;11.02;5.88;;;3.70;99.90;;;;;;5020719;28;20041;-66
2022/11/21 11:23:19;;;;;;;12.10;6.32;;;3.70;99.90;;;;;;5021395;28;20591;-66
2022/11/21 11:25:47;;;;;;;12.48;6.20;;;3.70;99.90;;;;;;5019455;28;20088;-67
2022/11/21 11:28:13;;;;;;;14.45;6.20;;;3.70;99.90;;;;;;5020985;28;20045;-68
2022/11/21 11:30:39;;;;;;;14.13;6.45;;;3.70;99.90;;;;;;5009475;28;20041;-68
2022/11/21 11:33:35;;;;;;;12.32;6.80;;;3.70;99.90;;;;;;5016200;28;20045;-68
2022/11/21 11:36:14;;;;;;;9.10;4.80;;;3.70;99.90;;;;;;5012494;28;20053;-68
2022/11/21 11:38:54;;;;;;;12.45;5.40;;;3.80;99.90;;;;;;5018875;28;20046;-68
2022/11/21 11:47:29;;;;;;;9.95;4.85;;;3.80;99.90;;;;;;5017985;28;20049;-68
2022/11/21 11:47:30;;;;;;;11.68;6.05;;;3.90;99.90;;;;;;5023930;28;20042;-66
2022/11/21 11:50:10;;;;;;;11.60;5.68;;;3.90;99.90;;;;;;5023738;28;20071;-66
2022/11/21 11:52:44;;;;;;;11.10;5.00;;;4.00;99.90;;;;;;5012151;28;20187;-66
2022/11/21 11:55:35;;;;;;;11.80;5.75;;;4.00;99.90;;;;;;5017326;28;20037;-67
2022/11/21 11:58:05;;;;;;;11.20;5.45;;;4.10;99.90;;;;;;5004421;28;20434;-66
2022/11/21 12:00:44;;;;;;;11.18;4.75;;;4.10;99.90;;;;;;5018974;28;20106;-66
2022/11/21 12:03:35;;;;;;;10.98;5.18;;;4.10;99.90;;;;;;5020632;28;20042;-67
2022/11/21 12:06:17;;;;;;;11.63;5.03;;;4.20;99.90;;;;;;5017317;28;20125;-67
2022/11/21 12:08:53;;;;;;;7.68;4.20;;;4.20;99.90;;;;;;5019494;28;20103;-67
2022/11/21 12:12:07;;;;;;;9.00;4.47;;;4.20;99.90;;;;;;5015847;28;20411;-67
2022/11/21 12:18:18;;;;;;;8.55;4.38;;;4.40;99.90;;;;;;5023233;28;20053;-67
2022/11/21 12:20:56;;;;;;;8.13;4.22;;;4.40;99.90;;;;;;5037420;28;20062;-67
2022/11/21 12:23:52;;;;;;;10.23;4.72;;;4.50;99.90;;;;;;5028353;28;20033;-67
2022/11/21 12:26:32;;;;;;;9.48;4.47;;;4.60;99.90;;;;;;4979410;28;20423;-66
2022/11/21 12:29:20;;;;;;;9.80;4.70;;;4.70;99.90;;;;;;5022129;28;20064;-66
2022/11/21 12:32:23;;;;;;;9.32;4.85;;;4.70;99.90;;;;;;5019270;28;20041;-68
2022/11/21 12:35:20;;;;;;;10.85;5.30;;;4.80;99.90;;;;;;5020796;28;20448;-67
2022/11/21 12:38:01;;;;;;;9.93;4.55;;;4.80;99.90;;;;;;5020052;28;20069;-66
2022/11/21 12:40:32;;;;;;;9.18;4.63;;;4.80;99.90;;;;;;5023670;28;20076;-67
2022/11/21 12:43:10;;;;;;;9.07;4.70;;;4.90;99.90;;;;;;5021168;28;20052;-66
2022/11/21 12:45:56;;;;;;;9.63;4.72;;;4.80;99.90;;;;;;5014676;28;20045;-66
2022/11/21 12:54:42;;;;;;;8.52;4.45;;;4.80;99.90;;;;;;5011311;28;20049;-67
2022/11/21 12:57:19;;;;;;;9.15;4.60;;;4.80;99.90;;;;;;5019355;28;20488;-67
2022/11/21 13:00:22;;;;;;;9.98;4.97;;;4.80;99.90;;;;;;5015255;28;20080;-66
2022/11/21 13:03:25;;;;;;;8.30;4.45;;;4.80;99.90;;;;;;5021403;28;20107;-67
2022/11/21 13:05:53;;;;;;;8.93;4.45;;;4.80;99.90;;;;;;5025345;28;20034;-66
2022/11/21 13:08:26;;;;;;;10.88;4.57;;;4.80;99.90;;;;;;5015492;28;20541;-66
2022/11/21 13:11:57;;;;;;;7.70;4.28;;;4.80;99.90;;;;;;5011349;28;20182;-66
2022/11/21 13:13:48;;;;;;;8.52;4.88;;;4.90;99.90;;;;;;5021669;28;21488;-67
2022/11/21 13:16:35;;;;;;;9.65;4.38;;;4.90;99.90;;;;;;5027732;28;20472;-67
2022/11/21 13:19:15;;;;;;;9.93;5.03;;;4.90;99.90;;;;;;5023871;28;20053;-66
2022/11/21 13:21:49;;;;;;;10.57;5.72;;;4.90;99.90;;;;;;5024455;28;20095;-66
2022/11/21 13:24:48;;;;;;;9.90;5.32;;;5.00;99.90;;;;;;5013910;28;20030;-67
2022/11/21 13:27:33;;;;;;;11.73;5.85;;;5.00;99.90;;;;;;5011556;28;20347;-66
2022/11/21 13:30:10;;;;;;;11.73;5.72;;;5.10;99.90;;;;;;5016655;28;20245;-66
2022/11/21 13:32:38;;;;;;;;;;;5.10;99.90;;;;;;5022332;28;20123;-67
2022/11/21 13:35:19;;;;;;;9.40;4.97;;;5.20;99.90;;;;;;5021594;28;19980;-66